Powersville, Kentucky
Current Conditions -  °F | °C
As of 10:55 PM on Thursday 18 Dec 2014 (Local Time) from KFGX Reporting Station
Overcast Overcast  
Wind Chill: 28°   Ceiling: 6000
Heat Index: 28°   Visibility: 10mi
Dew Point: 22°   Wind: 3mph
Humidity: 80%   Direction: 310°NW
Pressure: 30.25"   Gusts: NA
Location:  38.6516°N, 84.0942°W
Report Text: KFGX 190355Z AUTO 31003KT 10SM OVC060 M02/M06 A3025 RMK AO2 T10251056
Loading
Personal Weather Stations






























Interactive Weather Map New forecast layout! Learn more

10-Day Weather Forecast

Advertisements
Track Severe Weather on mobile